Live aus Altenrhein
LIVE
LSZR 110350Z AUTO VRB03KT CAVOK 02/02 Q0987
Zeitraffer heute
2017-12-11 00:00:00
LSZR 102250Z AUTO 24006KT 190V280 9999 OVC050 04/03 Q0990
Zeitraffer gestern
2017-12-10 00:14:51
LSZR 092250Z AUTO 11003KT 080V190 9999 NSC M02/M07 Q1015
Zeitraffer vor 3 Tagen
2017-12-08 00:14:57
LSZR 072250Z AUTO 20002KT CAVOK M01/M02 Q1015